Time;durP1;ratioP1;P1;durP2;ratioP2;P2;SDS_P1;SDS_P2;PMS_P1;PMS_P2;Temp;Humidity;BMP_temperature;BMP_pressure;BME280_temperature;BME280_humidity;BME280_pressure;Samples;Min_cycle;Max_cycle;Signal;HPM_P1;HPM_P2
2023/12/01 00:00:13;;;;;;;81.00;36.00;;;;;;;-0.11;100.00;100302.13;5034078;28;20102;-71
2023/12/01 00:02:40;;;;;;;82.03;36.08;;;;;;;-0.18;100.00;100297.75;5062500;28;20513;-71
2023/12/01 00:05:08;;;;;;;87.18;38.13;;;;;;;-0.19;100.00;100304.66;5031791;28;20345;-71
2023/12/01 00:07:35;;;;;;;58.75;19.50;;;;;;;-0.21;100.00;100308.09;5045095;28;20088;-71
2023/12/01 00:10:02;;;;;;;89.10;38.15;;;;;;;-0.21;100.00;100305.50;5030445;28;20132;-73
2023/12/01 00:12:29;;;;;;;88.05;39.25;;;;;;;-0.25;100.00;100311.53;5039107;28;20053;-71
2023/12/01 00:14:56;;;;;;;92.22;38.35;;;;;;;-0.27;100.00;100310.69;5045941;28;20041;-71
2023/12/01 00:17:23;;;;;;;92.30;39.70;;;;;;;-0.28;100.00;100314.13;5030205;28;20056;-71
2023/12/01 00:19:50;;;;;;;90.00;39.42;;;;;;;-0.31;100.00;100312.38;5024218;28;20040;-71
2023/12/01 00:22:17;;;;;;;93.47;36.03;;;;;;;-0.32;100.00;100313.25;5038034;28;20041;-71
2023/12/01 00:24:44;;;;;;;63.85;21.67;;;;;;;-0.38;100.00;100313.19;5030648;28;20087;-71
2023/12/01 00:27:12;;;;;;;65.57;20.85;;;;;;;-0.40;100.00;100308.00;5032791;28;20451;-71
2023/12/01 00:29:39;;;;;;;80.43;24.35;;;;;;;-0.39;100.00;100316.63;5056424;28;20045;-71
2023/12/01 00:32:06;;;;;;;111.65;42.80;;;;;;;-0.37;100.00;100318.41;5048231;28;21470;-72
2023/12/01 00:34:33;;;;;;;107.93;42.00;;;;;;;-0.30;100.00;100327.03;5046834;28;20503;-72
2023/12/01 00:37:01;;;;;;;112.43;43.38;;;;;;;-0.29;100.00;100330.53;5034507;28;20060;-71
2023/12/01 00:39:28;;;;;;;113.50;43.40;;;;;;;-0.29;100.00;100330.53;5048011;28;20469;-72
2023/12/01 00:41:56;;;;;;;122.28;44.63;;;;;;;-0.27;100.00;100332.25;5039406;28;20128;-72
2023/12/01 00:44:29;;;;;;;118.85;45.15;;;;;;;-0.26;100.00;100322.78;5045046;28;20521;-72
2023/12/01 00:46:56;;;;;;;67.05;21.67;;;;;;;-0.30;100.00;100327.03;5020628;28;20048;-72
2023/12/01 00:49:23;;;;;;;70.53;21.92;;;;;;;-0.36;100.00;100330.50;5034005;28;20049;-72
2023/12/01 00:51:50;;;;;;;80.88;25.15;;;;;;;-0.43;100.00;100333.03;5017473;28;20067;-72
2023/12/01 00:54:17;;;;;;;90.90;26.25;;;;;;;-0.50;100.00;100339.88;5058415;28;20037;-72
2023/12/01 00:56:44;;;;;;;115.30;44.08;;;;;;;-0.51;100.00;100338.13;5047214;28;20508;-72
2023/12/01 00:59:13;;;;;;;84.05;24.63;;;;;;;-0.54;100.00;100340.69;5039471;28;20044;-72
2023/12/01 01:01:40;;;;;;;112.93;42.63;;;;;;;-0.57;100.00;100341.56;5030249;28;20072;-71
2023/12/01 01:04:07;;;;;;;127.10;43.40;;;;;;;-0.64;100.00;100344.97;5020769;28;20111;-72
2023/12/01 01:06:37;;;;;;;82.13;22.50;;;;;;;-0.66;100.00;100352.69;5028354;28;20217;-72
2023/12/01 01:09:04;;;;;;;121.55;44.47;;;;;;;-0.68;100.00;100350.94;5030818;28;20631;-72
2023/12/01 01:11:32;;;;;;;122.80;43.00;;;;;;;-0.66;100.00;100357.03;5045610;28;20045;-71
2023/12/01 01:13:59;;;;;;;60.42;18.42;;;;;;;-0.65;100.00;100351.00;5027588;28;20129;-71
2023/12/01 01:16:26;;;;;;;108.38;38.50;;;;;;;-0.68;100.00;100351.84;5039225;28;20346;-71
2023/12/01 01:18:54;;;;;;;60.53;19.58;;;;;;;-0.73;100.00;100360.41;5024201;28;20409;-72
2023/12/01 01:21:21;;;;;;;125.32;42.95;;;;;;;-0.73;100.00;100357.84;5035469;28;20070;-71
2023/12/01 01:23:48;;;;;;;104.70;38.70;;;;;;;-0.77;100.00;100350.88;5050301;28;20045;-71
2023/12/01 01:26:15;;;;;;;56.85;18.17;;;;;;;-0.79;100.00;100356.06;5042333;28;20616;-72
2023/12/01 01:28:42;;;;;;;113.47;40.08;;;;;;;-0.85;100.00;100361.16;5039356;28;20055;-72
2023/12/01 01:31:09;;;;;;;111.43;40.22;;;;;;;-0.90;100.00;100363.72;5043057;28;20072;-72
2023/12/01 01:33:37;;;;;;;116.38;42.50;;;;;;;-0.90;100.00;100368.88;5039534;28;20113;-72
2023/12/01 01:36:04;;;;;;;62.53;19.52;;;;;;;-0.91;100.00;100364.56;5035366;28;20052;-72
2023/12/01 01:38:31;;;;;;;66.70;19.85;;;;;;;-0.92;100.00;100368.03;5020862;28;20077;-72
2023/12/01 01:40:58;;;;;;;42.10;14.95;;;;;;;-0.88;100.00;100366.34;5035915;28;20118;-72
2023/12/01 01:43:26;;;;;;;60.85;18.00;;;;;;;-0.90;100.00;100371.47;5022291;28;20101;-73
2023/12/01 01:46:09;;;;;;;111.40;41.42;;;;;;;-0.87;100.00;100365.47;5035212;28;21806;-72
2023/12/01 01:48:38;;;;;;;64.43;21.48;;;;;;;-0.91;100.00;100364.56;5022906;28;20090;-73
2023/12/01 01:51:08;;;;;;;70.57;21.13;;;;;;;-0.91;100.00;100366.28;5018116;28;21134;-73
2023/12/01 01:53:43;;;;;;;56.72;18.45;;;;;;;-0.91;100.00;100363.72;5022331;28;20038;-72
2023/12/01 01:56:12;;;;;;;116.18;42.22;;;;;;;-0.90;100.00;100368.88;5024670;28;20045;-72
2023/12/01 01:58:41;;;;;;;97.93;37.42;;;;;;;-0.84;100.00;100374.13;5050805;28;20091;-72
2023/12/01 02:01:08;;;;;;;47.45;17.55;;;;;;;-0.88;100.00;100377.53;5027766;28;20049;-72
2023/12/01 02:03:36;;;;;;;51.97;20.02;;;;;;;-0.83;100.00;100381.06;5040593;28;20042;-72
2023/12/01 02:06:09;;;;;;;53.03;12.80;;;;;;;-0.88;100.00;100382.72;5026638;28;20140;-71
2023/12/01 02:08:36;;;;;;;59.05;17.55;;;;;;;-0.97;100.00;100377.47;5038230;28;20059;-71
2023/12/01 02:11:03;;;;;;;87.60;35.47;;;;;;;-0.99;100.00;100387.81;5029812;28;20067;-71
2023/12/01 02:13:31;;;;;;;47.72;16.67;;;;;;;-0.98;100.00;100394.72;5052280;28;20037;-71
2023/12/01 02:16:01;;;;;;;83.70;34.78;;;;;;;-0.98;100.00;100381.78;5053010;28;20045;-71
2023/12/01 02:18:30;;;;;;;95.78;35.70;;;;;;;-0.98;100.00;100386.97;5052557;28;20084;-71
2023/12/01 02:20:58;;;;;;;59.85;19.75;;;;;;;-0.99;100.00;100385.22;5036629;28;20044;-71
2023/12/01 02:23:27;;;;;;;53.55;16.90;;;;;;;-0.94;100.00;100396.47;5039670;28;20489;-71
2023/12/01 02:25:54;;;;;;;86.05;35.50;;;;;;;-0.88;100.00;100393.06;5029491;28;20041;-71
2023/12/01 02:28:21;;;;;;;59.17;19.77;;;;;;;-0.91;100.00;100389.59;5040612;28;20038;-71
2023/12/01 02:30:54;;;;;;;87.85;34.80;;;;;;;-0.92;100.00;100390.44;5020679;28;20409;-71
2023/12/01 02:33:23;;;;;;;62.72;19.88;;;;;;;-0.94;100.00;100391.28;5033207;28;20163;-71
2023/12/01 02:35:53;;;;;;;39.17;14.18;;;;;;;-0.89;100.00;100395.66;5030971;28;20136;-71
2023/12/01 02:38:20;;;;;;;52.95;17.50;;;;;;;-0.90;100.00;100397.34;5043627;28;20053;-72
2023/12/01 02:40:51;;;;;;;85.25;35.28;;;;;;;-0.89;100.00;100399.09;5024789;28;20437;-72
2023/12/01 02:43:21;;;;;;;88.13;35.83;;;;;;;-0.84;100.00;100396.56;5030022;28;20072;-72
2023/12/01 02:45:49;;;;;;;49.22;17.45;;;;;;;-0.84;100.00;100397.44;5040005;28;20504;-71
2023/12/01 02:48:17;;;;;;;41.45;13.55;;;;;;;-0.79;100.00;100394.88;5035927;28;20047;-72
2023/12/01 02:50:46;;;;;;;81.00;36.25;;;;;;;-0.76;100.00;100396.63;5036500;28;20038;-73
2023/12/01 02:53:17;;;;;;;76.32;33.25;;;;;;;-0.75;100.00;100390.59;5009166;28;20053;-73
2023/12/01 02:55:45;;;;;;;79.43;34.63;;;;;;;-0.76;100.00;100388.88;5034007;28;20045;-73
2023/12/01 02:58:13;;;;;;;77.53;34.47;;;;;;;-0.77;100.00;100392.31;4993493;28;20050;-73
2023/12/01 03:00:43;;;;;;;38.60;12.00;;;;;;;-0.75;100.00;100385.41;5008886;28;20582;-73
2023/12/01 03:03:10;;;;;;;74.20;33.92;;;;;;;-0.77;100.00;100387.13;5023576;28;20048;-73
2023/12/01 03:05:38;;;;;;;44.17;17.65;;;;;;;-0.76;100.00;100381.09;5022709;28;20442;-73
2023/12/01 03:08:05;;;;;;;54.97;17.90;;;;;;;-0.73;100.00;100391.50;5031249;28;20687;-73
2023/12/01 03:10:34;;;;;;;37.38;13.80;;;;;;;-0.75;100.00;100395.78;5040610;28;20080;-73
2023/12/01 03:13:01;;;;;;;56.97;18.25;;;;;;;-0.73;100.00;100394.06;5026882;28;20681;-73
2023/12/01 03:15:29;;;;;;;56.38;18.20;;;;;;;-0.74;100.00;100389.75;5009460;28;20037;-72
2023/12/01 03:17:56;;;;;;;82.10;34.17;;;;;;;-0.69;100.00;100390.63;5035015;28;20489;-72
2023/12/01 03:20:23;;;;;;;75.05;33.53;;;;;;;-0.60;100.00;100382.09;5032324;28;20085;-72
2023/12/01 03:22:50;;;;;;;81.95;34.47;;;;;;;-0.60;100.00;100387.28;5025629;28;20540;-72
2023/12/01 03:25:18;;;;;;;73.18;33.08;;;;;;;-0.69;100.00;100388.94;5025450;28;20409;-72
2023/12/01 03:27:47;;;;;;;85.15;34.63;;;;;;;-0.70;100.00;100387.19;5034916;28;20497;-72
2023/12/01 03:30:18;;;;;;;77.43;34.38;;;;;;;-0.72;100.00;100383.72;5029898;28;20050;-72
2023/12/01 03:32:48;;;;;;;58.35;17.30;;;;;;;-0.72;100.00;100395.81;5020851;28;20509;-72
2023/12/01 03:35:27;;;;;;;74.13;31.85;;;;;;;-0.73;100.00;100389.75;5011850;28;20033;-72
2023/12/01 03:37:56;;;;;;;47.50;15.23;;;;;;;-0.74;100.00;100395.78;5044448;28;20111;-72
2023/12/01 03:40:27;;;;;;;47.90;17.88;;;;;;;-0.71;100.00;100389.78;5022012;28;20052;-72
2023/12/01 03:42:55;;;;;;;66.95;30.75;;;;;;;-0.66;100.00;100396.72;5033646;28;20053;-72
2023/12/01 03:45:23;;;;;;;67.65;31.30;;;;;;;-0.63;100.00;100403.66;5024196;28;20088;-72
2023/12/01 03:47:51;;;;;;;62.20;29.70;;;;;;;-0.62;100.00;100405.41;5028112;28;20509;-72
2023/12/01 03:50:19;;;;;;;50.85;17.83;;;;;;;-0.60;100.00;100408.84;5031895;28;20045;-72
2023/12/01 03:52:50;;;;;;;63.55;29.27;;;;;;;-0.58;100.00;100401.97;5015559;28;20040;-72
2023/12/01 03:55:17;;;;;;;51.92;16.60;;;;;;;-0.57;100.00;100403.69;5025967;28;20048;-72
2023/12/01 03:57:45;;;;;;;50.28;17.70;;;;;;;-0.59;100.00;100402.81;5030641;28;20053;-72
2023/12/01 04:00:18;;;;;;;59.17;28.42;;;;;;;-0.59;100.00;100392.44;5010026;28;20499;-72
2023/12/01 04:02:48;;;;;;;53.10;17.73;;;;;;;-0.54;100.00;100405.44;5029650;28;20041;-73
2023/12/01 04:05:17;;;;;;;62.30;29.88;;;;;;;-0.53;100.00;100404.59;5034045;28;20701;-72
2023/12/01 04:07:52;;;;;;;36.72;13.48;;;;;;;-0.52;100.00;100409.81;5014485;28;20056;-72
2023/12/01 04:10:27;;;;;;;38.47;15.25;;;;;;;-0.51;100.00;100410.66;5029709;28;20052;-72
2023/12/01 04:13:05;;;;;;;58.13;27.67;;;;;;;-0.52;100.00;100408.91;5045780;28;20065;-72
2023/12/01 04:15:36;;;;;;;64.90;28.27;;;;;;;-0.53;100.00;100407.19;5034833;28;20041;-72
2023/12/01 04:18:06;;;;;;;47.92;16.38;;;;;;;-0.49;100.00;100406.38;5028934;28;20056;-72
2023/12/01 04:20:38;;;;;;;47.90;15.65;;;;;;;-0.51;100.00;100411.50;5028557;28;20051;-72
2023/12/01 04:23:11;;;;;;;35.08;12.30;;;;;;;-0.49;100.00;100416.72;5018233;28;20077;-72
2023/12/01 04:25:40;;;;;;;57.05;26.27;;;;;;;-0.47;100.00;100415.03;5030438;28;20508;-72
2023/12/01 04:28:07;;;;;;;57.28;25.80;;;;;;;-0.46;100.00;100421.94;5032995;28;20049;-71
2023/12/01 04:30:34;;;;;;;49.10;16.30;;;;;;;-0.44;100.00;100433.16;5048204;28;20045;-71
2023/12/01 04:33:02;;;;;;;45.67;15.73;;;;;;;-0.43;100.00;100429.72;5046349;28;20057;-71
2023/12/01 04:35:34;;;;;;;59.03;26.17;;;;;;;-0.45;100.00;100430.56;5046350;28;20042;-71
2023/12/01 04:38:08;;;;;;;56.92;26.45;;;;;;;-0.48;100.00;100428.81;5049933;28;20079;-71
2023/12/01 04:40:39;;;;;;;45.75;14.45;;;;;;;-0.45;100.00;100446.09;5037215;28;20107;-71
2023/12/01 04:43:06;;;;;;;43.38;15.68;;;;;;;-0.48;100.00;100440.03;5039281;28;20616;-71
2023/12/01 04:45:35;;;;;;;54.13;25.73;;;;;;;-0.48;100.00;100437.44;5028775;28;20072;-71
2023/12/01 04:48:03;;;;;;;42.35;15.88;;;;;;;-0.45;100.00;100441.78;5013070;28;20050;-71
2023/12/01 04:50:31;;;;;;;62.90;28.58;;;;;;;-0.42;100.00;100443.53;5029726;28;20095;-71
2023/12/01 04:53:00;;;;;;;59.40;29.13;;;;;;;-0.39;100.00;100448.72;5030379;28;20069;-71
2023/12/01 04:55:29;;;;;;;43.38;15.52;;;;;;;-0.38;100.00;100437.50;5028158;28;20038;-71
2023/12/01 04:58:00;;;;;;;57.92;26.35;;;;;;;-0.36;100.00;100444.47;5028151;28;20126;-71
2023/12/01 05:00:27;;;;;;;56.38;25.85;;;;;;;-0.34;100.00;100453.09;5030403;28;20539;-72
2023/12/01 05:02:56;;;;;;;52.35;25.10;;;;;;;-0.34;100.00;100453.09;5030212;28;20843;-71
2023/12/01 05:05:26;;;;;;;54.70;26.10;;;;;;;-0.29;100.00;100452.28;5028915;28;20116;-71
2023/12/01 05:07:59;;;;;;;55.90;25.58;;;;;;;-0.29;100.00;100447.09;5031732;28;20054;-71
2023/12/01 05:10:29;;;;;;;55.55;25.20;;;;;;;-0.29;100.00;100452.28;5029973;28;20041;-71
2023/12/01 05:13:01;;;;;;;59.75;26.67;;;;;;;-0.29;100.00;100449.69;5030698;28;20049;-71
2023/12/01 05:15:31;;;;;;;43.33;14.98;;;;;;;-0.29;100.00;100452.28;5039716;28;20409;-71
2023/12/01 05:18:01;;;;;;;54.10;24.75;;;;;;;-0.27;100.00;100461.78;5030066;28;20128;-71
2023/12/01 05:20:29;;;;;;;56.67;25.70;;;;;;;-0.26;100.00;100463.53;5044695;28;20414;-71
2023/12/01 05:22:58;;;;;;;43.03;15.55;;;;;;;-0.24;100.00;100466.13;5052601;28;20049;-71
2023/12/01 05:25:32;;;;;;;54.33;24.67;;;;;;;-0.22;100.00;100473.06;5032992;28;20041;-71
2023/12/01 05:28:02;;;;;;;44.63;14.35;;;;;;;-0.17;100.00;100475.69;5028747;28;20034;-71
2023/12/01 05:30:33;;;;;;;37.03;13.75;;;;;;;-0.17;100.00;100481.75;5021153;28;20045;-72
2023/12/01 05:33:04;;;;;;;57.50;27.42;;;;;;;-0.14;100.00;100475.69;5024671;28;20056;-74
2023/12/01 05:35:35;;;;;;;53.20;24.05;;;;;;;-0.12;100.00;100478.31;5041898;28;20099;-70
2023/12/01 05:38:06;;;;;;;52.05;25.00;;;;;;;0.09;100.00;100478.50;5029324;28;20038;-71
2023/12/01 05:40:44;;;;;;;44.85;16.73;;;;;;;0.42;100.00;100484.72;5026618;28;20065;-70
2023/12/01 05:43:13;;;;;;;44.05;15.68;;;;;;;0.68;100.00;100480.53;5026607;28;20513;-72
2023/12/01 05:45:40;;;;;;;50.70;24.10;;;;;;;0.81;100.00;100484.06;5027775;28;20524;-71
2023/12/01 05:48:07;;;;;;;52.83;23.77;;;;;;;0.89;100.00;100484.97;5043720;28;20095;-71
2023/12/01 05:50:37;;;;;;;50.22;24.42;;;;;;;0.89;100.00;100487.56;5026092;28;20045;-71
2023/12/01 05:53:06;;;;;;;47.25;22.85;;;;;;;0.76;100.00;100492.69;5041394;28;20077;-70
2023/12/01 05:55:38;;;;;;;50.17;23.48;;;;;;;0.74;100.00;100490.94;5040592;28;20671;-70
2023/12/01 05:58:13;;;;;;;49.47;23.42;;;;;;;0.68;100.00;100496.97;5023489;28;20173;-70
2023/12/01 06:00:41;;;;;;;48.88;24.85;;;;;;;0.64;100.00;100495.22;5038548;28;20069;-71
2023/12/01 06:03:11;;;;;;;45.10;16.63;;;;;;;0.61;100.00;100498.66;5029583;28;20049;-70
2023/12/01 06:05:39;;;;;;;50.17;24.15;;;;;;;0.58;100.00;100503.84;5024372;28;20049;-70
2023/12/01 06:08:10;;;;;;;46.78;22.90;;;;;;;0.55;100.00;100496.06;5045555;28;20049;-70
2023/12/01 06:10:39;;;;;;;51.10;23.55;;;;;;;0.54;100.00;100502.09;5024913;28;20053;-70
2023/12/01 06:13:09;;;;;;;46.05;22.80;;;;;;;0.52;100.00;100495.16;5028688;28;20053;-70
2023/12/01 06:15:37;;;;;;;39.20;14.88;;;;;;;0.59;100.00;100497.78;5026944;28;20037;-70
2023/12/01 06:18:04;;;;;;;48.03;22.05;;;;;;;0.64;100.00;100496.97;5026540;28;20049;-71
2023/12/01 06:20:31;;;;;;;44.55;20.48;;;;;;;0.55;100.00;100490.88;5038370;28;20095;-71
2023/12/01 06:23:05;;;;;;;46.42;23.25;;;;;;;0.46;100.00;100501.16;5025776;28;20056;-71
2023/12/01 06:25:37;;;;;;;45.70;21.60;;;;;;;0.38;100.00;100508.94;5042123;28;20045;-71
2023/12/01 06:28:05;;;;;;;45.08;21.45;;;;;;;0.30;100.00;100510.59;5026413;28;20580;-71
2023/12/01 06:30:34;;;;;;;43.70;19.98;;;;;;;0.23;100.00;100511.41;5028137;28;20120;-72
2023/12/01 06:33:06;;;;;;;39.75;21.48;;;;;;;0.20;100.00;100512.25;5022832;28;20509;-71
2023/12/01 06:35:34;;;;;;;43.22;20.85;;;;;;;0.14;100.00;100510.47;5025530;28;20048;-71
2023/12/01 06:38:02;;;;;;;53.85;21.95;;;;;;;0.10;100.00;100519.09;5026260;28;20037;-71
2023/12/01 06:40:33;;;;;;;34.67;12.70;;;;;;;0.08;100.00;100514.75;5041195;28;20508;-73
2023/12/01 06:43:10;;;;;;;43.03;20.17;;;;;;;0.09;100.00;100511.31;5024848;28;20084;-72
2023/12/01 06:45:41;;;;;;;47.22;21.23;;;;;;;0.06;100.00;100511.28;5041593;28;20034;-71
2023/12/01 06:48:09;;;;;;;49.22;22.60;;;;;;;0.07;100.00;100516.50;5026271;28;20712;-71
2023/12/01 06:50:36;;;;;;;42.70;21.02;;;;;;;0.07;100.00;100519.09;5023598;28;20159;-72
2023/12/01 06:53:05;;;;;;;45.13;21.05;;;;;;;0.06;100.00;100529.41;5027014;28;20069;-71
2023/12/01 06:55:34;;;;;;;28.30;11.50;;;;;;;0.03;100.00;100527.69;5026033;28;20037;-71
2023/12/01 06:58:01;;;;;;;37.55;18.25;;;;;;;0.02;100.00;100535.44;5023228;28;20136;-72
2023/12/01 07:02:56;;;;;;;37.83;20.00;;;;;;;-0.04;100.00;100536.25;5022604;28;20108;-72
2023/12/01 07:05:26;;;;;;;37.55;19.25;;;;;;;-0.06;100.00;100545.75;5030181;28;20064;-71
2023/12/01 07:07:54;;;;;;;33.67;11.00;;;;;;;-0.08;100.00;100548.34;5029384;28;20644;-71
2023/12/01 07:10:24;;;;;;;31.85;11.63;;;;;;;-0.09;100.00;100559.56;5028394;28;20132;-71
2023/12/01 07:12:52;;;;;;;34.47;18.05;;;;;;;-0.10;100.00;100556.97;5028284;28;20490;-71
2023/12/01 07:15:22;;;;;;;35.40;18.58;;;;;;;-0.06;100.00;100556.13;5027955;28;20041;-71
2023/12/01 07:17:51;;;;;;;30.38;12.60;;;;;;;-0.06;100.00;100566.47;5026811;28;20073;-72
2023/12/01 07:20:20;;;;;;;33.25;17.38;;;;;;;-0.08;100.00;100571.66;5027712;28;20045;-72
2023/12/01 07:22:51;;;;;;;27.10;10.80;;;;;;;-0.08;100.00;100565.59;5026673;28;20132;-72
2023/12/01 07:25:23;;;;;;;23.13;10.68;;;;;;;-0.06;100.00;100569.97;5027099;28;20049;-72
2023/12/01 07:28:04;;;;;;;34.97;18.58;;;;;;;-0.06;100.00;100564.78;5027656;28;20061;-71
2023/12/01 07:30:31;;;;;;;34.05;17.42;;;;;;;-0.06;100.00;100569.06;5027641;28;20038;-72
2023/12/01 07:33:01;;;;;;;27.65;10.00;;;;;;;-0.09;100.00;100569.03;5027024;28;20080;-72
2023/12/01 07:35:29;;;;;;;28.73;10.88;;;;;;;-0.11;100.00;100570.78;5042253;28;20041;-71
2023/12/01 07:37:56;;;;;;;28.52;10.43;;;;;;;-0.08;100.00;100571.66;5026869;28;20047;-72
2023/12/01 07:40:23;;;;;;;32.85;16.92;;;;;;;-0.06;100.00;100575.16;5043012;28;20096;-71
2023/12/01 07:42:57;;;;;;;30.02;17.63;;;;;;;0.00;100.00;100579.50;5044094;28;20041;-71
2023/12/01 07:45:25;;;;;;;31.35;16.40;;;;;;;-0.08;100.00;100576.84;5031836;28;20560;-72
2023/12/01 07:47:57;;;;;;;34.13;18.15;;;;;;;-0.14;100.00;100569.00;5031687;28;20135;-71
2023/12/01 07:50:25;;;;;;;25.58;9.98;;;;;;;-0.12;100.00;100571.63;5031147;28;20693;-71
2023/12/01 07:52:54;;;;;;;32.95;17.40;;;;;;;-0.11;100.00;100581.13;5032091;28;20513;-71
2023/12/01 07:55:22;;;;;;;30.55;16.77;;;;;;;-0.10;100.00;100570.78;5031108;28;20124;-71
2023/12/01 07:57:51;;;;;;;33.90;17.60;;;;;;;-0.09;100.00;100571.63;5031008;28;20049;-72
2023/12/01 08:00:18;;;;;;;25.77;9.32;;;;;;;-0.10;100.00;100578.53;5046795;28;20041;-71
2023/12/01 08:02:48;;;;;;;18.75;8.10;;;;;;;-0.08;100.00;100578.56;5049234;28;20051;-72
2023/12/01 08:05:15;;;;;;;33.25;17.50;;;;;;;-0.07;100.00;100576.00;5042755;28;20041;-72
2023/12/01 08:07:51;;;;;;;34.03;17.90;;;;;;;-0.07;100.00;100580.28;5032288;28;20042;-72
2023/12/01 08:10:21;;;;;;;33.45;17.55;;;;;;;-0.07;100.00;100583.75;5031268;28;20049;-72
2023/12/01 08:12:50;;;;;;;28.30;11.10;;;;;;;-0.06;100.00;100577.72;5030741;28;20099;-71
2023/12/01 08:15:17;;;;;;;31.48;17.38;;;;;;;-0.03;100.00;100577.75;5012039;28;20050;-72
2023/12/01 08:17:45;;;;;;;22.20;8.48;;;;;;;0.00;100.00;100584.69;5010613;28;20046;-72
2023/12/01 08:20:14;;;;;;;24.13;9.60;;;;;;;-0.04;100.00;100580.31;5011541;28;20045;-72
2023/12/01 08:22:46;;;;;;;36.10;19.65;;;;;;;-0.01;100.00;100575.19;5012169;28;20052;-71
2023/12/01 08:25:14;;;;;;;33.80;18.73;;;;;;;0.03;100.00;100586.44;5011427;28;20145;-72
2023/12/01 08:27:42;;;;;;;30.55;16.45;;;;;;;0.09;100.00;100589.06;5010372;28;20133;-72
2023/12/01 08:30:10;;;;;;;31.67;16.35;;;;;;;0.09;100.00;100591.66;5011614;28;20065;-72
2023/12/01 08:32:48;;;;;;;31.20;16.85;;;;;;;0.03;100.00;100589.88;5046857;28;20136;-72
2023/12/01 08:35:16;;;;;;;24.10;9.27;;;;;;;0.02;100.00;100598.50;5051197;28;20680;-72
2023/12/01 08:37:43;;;;;;;21.88;9.00;;;;;;;0.05;100.00;100601.16;5040726;28;20057;-72
2023/12/01 08:40:11;;;;;;;30.40;16.50;;;;;;;0.06;100.00;100604.59;5031936;28;20128;-71
2023/12/01 08:42:42;;;;;;;30.70;15.70;;;;;;;0.07;100.00;100606.34;5030611;28;20140;-72
2023/12/01 08:45:10;;;;;;;19.80;8.63;;;;;;;0.06;100.00;100610.66;5031272;28;20116;-72
2023/12/01 08:47:42;;;;;;;26.77;15.25;;;;;;;0.10;100.00;100616.75;5029833;28;20037;-71
2023/12/01 08:50:10;;;;;;;27.90;15.27;;;;;;;0.07;100.00;100619.28;5030422;28;20045;-72
2023/12/01 08:52:40;;;;;;;23.95;8.27;;;;;;;0.04;99.65;100621.88;5032964;28;20037;-71
2023/12/01 08:55:07;;;;;;;24.95;11.30;;;;;;;0.02;100.00;100624.44;5029561;28;20586;-71
2023/12/01 08:57:35;;;;;;;20.50;8.63;;;;;;;0.05;99.54;100624.47;5029016;28;20099;-72
2023/12/01 09:00:03;;;;;;;15.02;6.45;;;;;;;0.01;100.00;100629.63;5030326;28;20693;-72
2023/12/01 09:02:30;;;;;;;29.50;16.50;;;;;;;0.03;100.00;100631.38;5030496;28;20125;-71
2023/12/01 09:04:57;;;;;;;27.45;15.40;;;;;;;0.09;100.00;100628.84;5030000;28;20041;-71
2023/12/01 09:07:24;;;;;;;25.25;15.10;;;;;;;0.06;98.96;100631.41;5030488;28;20041;-71
2023/12/01 09:10:00;;;;;;;20.63;9.48;;;;;;;-0.04;99.53;100629.56;5030402;28;20045;-72
2023/12/01 09:12:27;;;;;;;29.55;16.70;;;;;;;-0.08;100.00;100628.69;5045497;28;20053;-71
2023/12/01 09:14:54;;;;;;;28.52;16.30;;;;;;;-0.05;99.34;100636.47;5030078;28;20088;-71
2023/12/01 09:17:22;;;;;;;22.42;8.68;;;;;;;-0.07;98.62;100635.59;5045886;28;20053;-71
2023/12/01 09:19:49;;;;;;;27.85;15.48;;;;;;;-0.15;98.72;100639.81;5014085;28;20041;-72
2023/12/01 09:22:17;;;;;;;18.50;8.82;;;;;;;-0.18;98.53;100645.84;5030584;28;20049;-72
2023/12/01 09:24:45;;;;;;;21.40;9.32;;;;;;;-0.22;99.16;100648.38;5029173;28;20080;-72
2023/12/01 09:27:13;;;;;;;31.40;16.95;;;;;;;-0.25;99.68;100656.13;5030024;28;20045;-72
2023/12/01 09:29:40;;;;;;;28.52;15.60;;;;;;;-0.23;99.20;100660.47;5029863;28;20045;-72
2023/12/01 09:32:08;;;;;;;16.15;7.05;;;;;;;-0.25;99.38;100663.88;5029559;28;20073;-72
2023/12/01 09:34:35;;;;;;;28.77;15.63;;;;;;;-0.27;98.69;100673.38;5030154;28;20586;-71
2023/12/01 09:37:02;;;;;;;28.13;15.35;;;;;;;-0.29;98.89;100673.34;5030260;28;20053;-72
2023/12/01 09:39:29;;;;;;;30.50;15.57;;;;;;;-0.30;98.54;100669.00;5045504;28;20045;-71
2023/12/01 09:41:57;;;;;;;29.17;15.25;;;;;;;-0.29;98.94;100672.50;5029765;28;20045;-71
2023/12/01 09:44:26;;;;;;;20.90;7.68;;;;;;;-0.27;98.44;100665.63;5029045;28;20038;-72
2023/12/01 09:46:58;;;;;;;17.33;7.50;;;;;;;-0.28;97.92;100672.50;5025490;28;20060;-72
2023/12/01 09:49:25;;;;;;;27.30;14.15;;;;;;;-0.30;98.22;100674.19;5030629;28;20049;-72
2023/12/01 09:51:52;;;;;;;27.58;15.07;;;;;;;-0.27;98.01;100682.00;5041752;28;20461;-72
2023/12/01 09:54:20;;;;;;;19.77;8.32;;;;;;;-0.32;98.19;100678.50;5009716;28;20037;-72
2023/12/01 09:56:47;;;;;;;17.38;6.90;;;;;;;-0.30;98.03;100681.97;5025291;28;20038;-72
2023/12/01 09:59:16;;;;;;;29.83;16.23;;;;;;;-0.26;97.50;100678.56;5009659;28;20076;-72
2023/12/01 10:01:44;;;;;;;28.00;14.88;;;;;;;-0.25;96.84;100682.91;5039910;28;20505;-71
2023/12/01 10:04:12;;;;;;;26.17;14.40;;;;;;;-0.26;96.66;100693.25;5045359;28;20595;-71
2023/12/01 10:06:40;;;;;;;27.20;15.68;;;;;;;-0.27;96.25;100689.78;5028740;28;20480;-71
2023/12/01 10:09:10;;;;;;;15.15;7.03;;;;;;;-0.31;96.67;100685.44;5029878;28;20041;-71
2023/12/01 10:11:37;;;;;;;20.67;8.35;;;;;;;-0.34;97.01;100690.56;5029720;28;20045;-71
2023/12/01 10:14:08;;;;;;;28.33;15.15;;;;;;;-0.31;97.91;100685.44;5027358;28;20049;-71
2023/12/01 10:16:36;;;;;;;27.38;14.77;;;;;;;-0.24;98.38;100676.00;5029372;28;20049;-71
2023/12/01 10:19:05;;;;;;;27.38;14.35;;;;;;;-0.18;97.25;100684.72;5028275;28;20995;-71
2023/12/01 10:21:47;;;;;;;28.52;15.25;;;;;;;-0.17;96.79;100678.69;5028185;28;20131;-71
2023/12/01 10:24:22;;;;;;;24.65;14.40;;;;;;;-0.16;95.89;100674.38;5027463;28;20046;-71
2023/12/01 10:26:54;;;;;;;27.08;14.55;;;;;;;-0.11;95.87;100677.03;5028743;28;20045;-71
2023/12/01 10:29:31;;;;;;;21.77;8.35;;;;;;;-0.13;95.52;100679.56;5010417;28;20072;-71
2023/12/01 10:32:11;;;;;;;27.05;15.55;;;;;;;-0.16;95.89;100675.25;5026542;28;20052;-71
2023/12/01 10:34:38;;;;;;;22.90;8.88;;;;;;;-0.15;96.91;100676.09;5028543;28;20081;-71
2023/12/01 10:37:05;;;;;;;23.60;8.35;;;;;;;-0.11;96.22;100672.69;5028966;28;20402;-71
2023/12/01 10:39:33;;;;;;;27.38;15.10;;;;;;;-0.14;95.79;100677.84;5011450;28;20408;-71
2023/12/01 10:42:00;;;;;;;15.20;6.97;;;;;;;-0.14;96.60;100683.03;5028792;28;20042;-71
2023/12/01 10:44:35;;;;;;;28.80;16.02;;;;;;;-0.07;95.91;100684.84;5042906;28;20545;-71
2023/12/01 10:47:02;;;;;;;26.45;14.45;;;;;;;-0.06;95.09;100677.94;5028443;28;20071;-71
2023/12/01 10:49:31;;;;;;;17.30;8.10;;;;;;;-0.06;94.12;100672.75;5027722;28;20582;-71
2023/12/01 10:52:01;;;;;;;26.75;13.88;;;;;;;-0.12;93.84;100677.88;5028013;28;20091;-71
2023/12/01 10:54:28;;;;;;;26.10;14.30;;;;;;;-0.12;94.42;100680.47;5028279;28;20052;-71
2023/12/01 10:57:15;;;;;;;27.52;15.35;;;;;;;-0.12;93.66;100664.91;5028505;28;20049;-71
2023/12/01 10:59:52;;;;;;;29.98;14.85;;;;;;;-0.16;93.65;100674.38;5024331;28;20101;-71
2023/12/01 11:02:24;;;;;;;27.33;14.57;;;;;;;-0.18;94.55;100676.94;5026732;28;20048;-71
2023/12/01 11:04:52;;;;;;;20.65;8.65;;;;;;;-0.17;94.62;100675.22;5027026;28;20148;-70
2023/12/01 11:08:06;;;;;;;13.38;4.97;;;;;;;-0.14;95.11;100667.47;5026266;28;20634;-70
2023/12/01 11:10:56;;;;;;;26.92;15.30;;;;;;;-0.07;95.18;100663.22;5042248;28;20129;-70
2023/12/01 11:14:16;;;;;;;25.60;14.00;;;;;;;-0.02;93.06;100662.41;5028732;28;20055;-70
2023/12/01 11:16:47;;;;;;;27.55;14.65;;;;;;;-0.07;92.22;100663.22;5021581;28;20536;-71